Time;durP1;ratioP1;P1;durP2;ratioP2;P2;SDS_P1;SDS_P2;PMS_P1;PMS_P2;Temp;Humidity;BMP_temperature;BMP_pressure;BME280_temperature;BME280_humidity;BME280_pressure;Samples;Min_cycle;Max_cycle;Signal;HPM_P1;HPM_P2
2022/07/31 00:01:24;;;;;;;3.50;2.80;;;;;;;;;;711015;198;641066;-91
2022/07/31 00:03:50;;;;;;;3.80;2.50;;;;;;;;;;709198;197;627379;-89
2022/07/31 00:06:16;;;;;;;3.37;2.73;;;;;;;;;;711377;196;620041;-91
2022/07/31 00:08:42;;;;;;;4.10;2.63;;;;;;;;;;714254;197;625479;-91
2022/07/31 00:11:10;;;;;;;8.43;2.43;;;;;;;;;;711111;196;643051;-92
2022/07/31 00:13:33;;;;;;;3.73;2.50;;;;;;;;;;708678;196;623225;-92
2022/07/31 00:15:59;;;;;;;3.10;2.40;;;;;;;;;;712731;197;632409;-90
2022/07/31 00:18:25;;;;;;;3.50;2.17;;;;;;;;;;707481;196;635619;-93
2022/07/31 00:20:51;;;;;;;3.37;2.00;;;;;;;;;;712492;196;617479;-91
2022/07/31 00:23:17;;;;;;;3.90;1.90;;;;;;;;;;709792;197;614436;-92
2022/07/31 00:25:43;;;;;;;2.57;1.97;;;;;;;;;;721202;196;649086;-92
2022/07/31 00:28:08;;;;;;;3.10;2.10;;;;;;;;;;710453;196;639561;-92
2022/07/31 00:30:34;;;;;;;3.03;2.00;;;;;;;;;;707056;198;626694;-93
2022/07/31 00:33:00;;;;;;;3.40;1.90;;;;;;;;;;710339;198;629709;-93
2022/07/31 00:35:26;;;;;;;2.67;1.93;;;;;;;;;;706396;198;627538;-93
2022/07/31 00:37:52;;;;;;;2.70;2.13;;;;;;;;;;707367;197;623795;-92
2022/07/31 00:40:18;;;;;;;2.87;2.30;;;;;;;;;;719901;197;636243;-92
2022/07/31 00:42:43;;;;;;;3.30;1.63;;;;;;;;;;708252;198;619380;-91
2022/07/31 00:45:10;;;;;;;3.00;1.77;;;;;;;;;;706787;198;625629;-90
2022/07/31 00:47:35;;;;;;;3.27;2.20;;;;;;;;;;707397;198;625659;-91
2022/07/31 00:50:01;;;;;;;2.70;1.97;;;;;;;;;;712115;197;623599;-92
2022/07/31 00:52:27;;;;;;;2.83;1.70;;;;;;;;;;705530;198;634894;-92
2022/07/31 00:54:53;;;;;;;2.37;1.43;;;;;;;;;;711007;198;644311;-93
2022/07/31 00:57:19;;;;;;;2.70;1.77;;;;;;;;;;719916;197;634234;-93
2022/07/31 00:59:45;;;;;;;2.73;2.20;;;;;;;;;;713658;197;635121;-93
2022/07/31 01:02:10;;;;;;;4.87;1.70;;;;;;;;;;713690;198;634882;-92
2022/07/31 01:04:36;;;;;;;2.87;1.80;;;;;;;;;;711159;197;634742;-93
2022/07/31 01:07:02;;;;;;;7.20;2.30;;;;;;;;;;707909;198;666256;-93
2022/07/31 01:09:28;;;;;;;2.50;2.00;;;;;;;;;;708112;198;635350;-92
2022/07/31 01:11:55;;;;;;;3.47;2.00;;;;;;;;;;711620;194;635827;-92
2022/07/31 01:14:20;;;;;;;2.77;1.70;;;;;;;;;;712312;198;712599;-92
2022/07/31 01:16:46;;;;;;;3.83;2.17;;;;;;;;;;712886;197;636713;-90
2022/07/31 01:19:13;;;;;;;6.93;2.20;;;;;;;;;;713977;197;636701;-92
2022/07/31 01:21:39;;;;;;;3.33;1.80;;;;;;;;;;746646;184;654539;-85
2022/07/31 01:24:06;;;;;;;4.40;1.90;;;;;;;;;;737949;187;629950;-90
2022/07/31 01:26:37;;;;;;;4.43;2.00;;;;;;;;;;733191;186;641343;-89
2022/07/31 01:29:09;;;;;;;2.63;1.93;;;;;;;;;;736609;190;651295;-89
2022/07/31 01:31:36;;;;;;;3.47;1.50;;;;;;;;;;732001;190;624384;-89
2022/07/31 01:34:07;;;;;;;4.70;1.40;;;;;;;;;;740955;188;640560;-90
2022/07/31 01:36:33;;;;;;;2.17;1.40;;;;;;;;;;745788;188;626864;-89
2022/07/31 01:38:58;;;;;;;2.10;1.20;;;;;;;;;;745723;186;627233;-89
2022/07/31 01:41:24;;;;;;;3.53;1.43;;;;;;;;;;749791;188;630603;-89
2022/07/31 01:43:50;;;;;;;3.00;1.20;;;;;;;;;;753989;187;624247;-89
2022/07/31 01:46:15;;;;;;;2.13;1.30;;;;;;;;;;746203;186;634716;-90
2022/07/31 01:48:41;;;;;;;2.53;1.00;;;;;;;;;;744300;188;628488;-89
2022/07/31 01:51:07;;;;;;;2.10;1.33;;;;;;;;;;747497;188;628519;-88
2022/07/31 01:53:35;;;;;;;2.10;1.30;;;;;;;;;;747232;183;633600;-89
2022/07/31 01:55:59;;;;;;;2.17;1.00;;;;;;;;;;750842;187;630339;-88
2022/07/31 01:58:25;;;;;;;1.80;0.87;;;;;;;;;;752697;187;663151;-90
2022/07/31 02:00:51;;;;;;;2.27;0.90;;;;;;;;;;751189;187;629555;-88
2022/07/31 02:03:16;;;;;;;3.10;1.10;;;;;;;;;;746813;188;640674;-88
2022/07/31 02:05:42;;;;;;;2.63;1.03;;;;;;;;;;751902;187;634308;-89
2022/07/31 02:08:08;;;;;;;1.70;0.80;;;;;;;;;;747997;187;619830;-90
2022/07/31 02:10:34;;;;;;;2.47;1.10;;;;;;;;;;751381;187;655167;-87
2022/07/31 02:13:01;;;;;;;2.90;0.93;;;;;;;;;;751513;188;624235;-89
2022/07/31 02:15:26;;;;;;;2.00;0.80;;;;;;;;;;748277;188;655600;-89
2022/07/31 02:17:51;;;;;;;1.70;0.80;;;;;;;;;;752444;187;632120;-89
2022/07/31 02:20:17;;;;;;;2.77;0.80;;;;;;;;;;751809;187;664872;-88
2022/07/31 02:22:43;;;;;;;3.03;1.00;;;;;;;;;;748048;187;626083;-87
2022/07/31 02:25:09;;;;;;;1.90;0.97;;;;;;;;;;748372;188;636822;-87
2022/07/31 02:27:35;;;;;;;1.60;0.80;;;;;;;;;;749352;186;631161;-88
2022/07/31 02:30:01;;;;;;;3.40;1.00;;;;;;;;;;755509;186;622065;-88
2022/07/31 02:32:27;;;;;;;1.70;0.90;;;;;;;;;;748074;187;642292;-89
2022/07/31 02:34:52;;;;;;;1.90;1.00;;;;;;;;;;751061;187;623882;-89
2022/07/31 02:37:18;;;;;;;2.83;1.00;;;;;;;;;;755971;187;629056;-87
2022/07/31 02:39:44;;;;;;;1.90;0.90;;;;;;;;;;749512;187;630812;-89
2022/07/31 02:42:10;;;;;;;1.70;0.90;;;;;;;;;;752121;187;628523;-88
2022/07/31 02:44:36;;;;;;;10.40;1.13;;;;;;;;;;754154;187;622432;-88
2022/07/31 02:47:04;;;;;;;1.80;0.93;;;;;;;;;;750701;182;630084;-88
2022/07/31 02:49:27;;;;;;;2.47;1.00;;;;;;;;;;752715;185;645409;-88
2022/07/31 02:51:55;;;;;;;3.27;0.97;;;;;;;;;;751686;186;669032;-88
2022/07/31 02:54:19;;;;;;;1.90;0.90;;;;;;;;;;753948;187;634009;-89
2022/07/31 02:56:45;;;;;;;2.13;1.00;;;;;;;;;;751999;186;668713;-90
2022/07/31 02:59:11;;;;;;;1.60;0.73;;;;;;;;;;750491;186;681202;-88
2022/07/31 03:01:37;;;;;;;1.80;0.90;;;;;;;;;;760566;186;617282;-88
2022/07/31 03:04:03;;;;;;;2.60;1.10;;;;;;;;;;751935;186;635355;-88
2022/07/31 03:06:29;;;;;;;2.23;1.27;;;;;;;;;;745862;186;630074;-89
2022/07/31 03:08:54;;;;;;;2.43;1.03;;;;;;;;;;758209;186;614704;-88
2022/07/31 03:11:20;;;;;;;2.73;1.20;;;;;;;;;;750503;186;628504;-87
2022/07/31 03:13:46;;;;;;;4.70;1.10;;;;;;;;;;754805;186;635165;-88
2022/07/31 03:16:12;;;;;;;2.97;1.03;;;;;;;;;;754797;186;643067;-86
2022/07/31 03:18:38;;;;;;;4.90;1.30;;;;;;;;;;758666;186;643584;-86
2022/07/31 03:21:04;;;;;;;3.00;1.00;;;;;;;;;;753474;186;636503;-89
2022/07/31 03:23:35;;;;;;;4.07;1.03;;;;;;;;;;756653;186;694274;-84
2022/07/31 03:25:57;;;;;;;11.43;3.63;;;;;;;;;;760531;176;628805;-85
2022/07/31 03:28:21;;;;;;;2.28;1.30;;;;;;;;;;731678;190;637279;-85
2022/07/31 03:30:47;;;;;;;2.40;1.40;;;;;;;;;;757000;183;665471;-87
2022/07/31 03:33:13;;;;;;;2.13;1.20;;;;;;;;;;756578;183;630929;-86
2022/07/31 03:35:39;;;;;;;2.63;1.30;;;;;;;;;;753517;184;644923;-85
2022/07/31 03:38:05;;;;;;;2.70;1.80;;;;;;;;;;754591;183;637557;-85
2022/07/31 03:40:31;;;;;;;2.83;1.80;;;;;;;;;;755096;182;614831;-86
2022/07/31 03:42:56;;;;;;;6.83;1.50;;;;;;;;;;753381;184;627110;-85
2022/07/31 03:45:22;;;;;;;3.10;2.20;;;;;;;;;;756115;183;623375;-86
2022/07/31 03:47:49;;;;;;;2.53;1.70;;;;;;;;;;756211;183;726204;-87
2022/07/31 03:50:16;;;;;;;2.80;2.00;;;;;;;;;;761391;183;625914;-86
2022/07/31 03:52:41;;;;;;;2.47;1.83;;;;;;;;;;758568;183;634318;-86
2022/07/31 03:55:07;;;;;;;2.50;1.90;;;;;;;;;;758817;182;629744;-86
2022/07/31 03:57:32;;;;;;;2.60;1.80;;;;;;;;;;761245;183;630116;-89
2022/07/31 03:59:58;;;;;;;3.30;2.17;;;;;;;;;;754074;184;652011;-87
2022/07/31 04:02:24;;;;;;;2.40;1.77;;;;;;;;;;756778;183;629567;-86
2022/07/31 04:04:50;;;;;;;2.90;1.73;;;;;;;;;;755158;185;643310;-86
2022/07/31 04:07:16;;;;;;;2.60;2.30;;;;;;;;;;754704;184;629653;-86
2022/07/31 04:09:42;;;;;;;3.00;2.50;;;;;;;;;;751406;182;665066;-86
2022/07/31 04:12:07;;;;;;;3.77;2.27;;;;;;;;;;754479;183;696408;-86
2022/07/31 04:14:33;;;;;;;2.73;1.67;;;;;;;;;;759998;183;634545;-86
2022/07/31 04:16:59;;;;;;;2.63;1.70;;;;;;;;;;755892;183;624764;-86
2022/07/31 04:19:25;;;;;;;3.00;2.00;;;;;;;;;;747644;185;626962;-86
2022/07/31 04:21:51;;;;;;;2.60;1.90;;;;;;;;;;755924;183;632959;-85
2022/07/31 04:24:17;;;;;;;2.70;2.27;;;;;;;;;;749140;185;631576;-86
2022/07/31 04:26:43;;;;;;;4.10;2.30;;;;;;;;;;763021;183;619811;-87
2022/07/31 04:29:09;;;;;;;3.70;1.80;;;;;;;;;;755095;182;628740;-85
2022/07/31 04:31:35;;;;;;;3.07;2.03;;;;;;;;;;754575;185;672903;-86
2022/07/31 04:34:01;;;;;;;10.53;2.20;;;;;;;;;;754516;184;659591;-86
2022/07/31 04:36:27;;;;;;;2.60;1.87;;;;;;;;;;760245;183;631970;-86
2022/07/31 04:38:52;;;;;;;2.67;1.77;;;;;;;;;;760847;183;667035;-86
2022/07/31 04:41:18;;;;;;;4.90;2.00;;;;;;;;;;753782;183;617545;-86
2022/07/31 04:43:44;;;;;;;3.23;2.30;;;;;;;;;;756533;183;681989;-87
2022/07/31 04:46:10;;;;;;;2.83;2.33;;;;;;;;;;757465;183;613912;-86
2022/07/31 04:48:36;;;;;;;3.60;2.97;;;;;;;;;;758192;183;698384;-86
2022/07/31 04:51:02;;;;;;;3.83;2.63;;;;;;;;;;766628;182;672059;-87
2022/07/31 04:53:28;;;;;;;3.67;2.77;;;;;;;;;;760598;183;651751;-86
2022/07/31 04:58:25;;;;;;;3.73;3.00;;;;;;;;;;763141;183;623775;-86
2022/07/31 05:00:51;;;;;;;3.77;2.40;;;;;;;;;;747902;182;673855;-86
2022/07/31 05:03:17;;;;;;;3.57;2.77;;;;;;;;;;758297;183;631610;-85
2022/07/31 05:05:44;;;;;;;3.33;2.70;;;;;;;;;;757096;182;629353;-86
2022/07/31 05:08:08;;;;;;;4.47;3.40;;;;;;;;;;760293;183;635367;-85
2022/07/31 05:13:06;;;;;;;4.97;3.60;;;;;;;;;;747805;185;634042;-87
2022/07/31 05:15:32;;;;;;;3.70;3.17;;;;;;;;;;755342;183;629169;-87
2022/07/31 05:17:58;;;;;;;3.73;3.33;;;;;;;;;;761720;183;630215;-84
2022/07/31 05:20:24;;;;;;;5.03;3.33;;;;;;;;;;760862;183;647127;-86
2022/07/31 05:22:49;;;;;;;4.10;3.13;;;;;;;;;;766594;183;640243;-87
2022/07/31 05:25:15;;;;;;;5.90;3.20;;;;;;;;;;758473;183;634956;-85
2022/07/31 05:27:41;;;;;;;3.93;2.80;;;;;;;;;;762445;183;621443;-85
2022/07/31 05:30:07;;;;;;;3.50;3.00;;;;;;;;;;755391;183;619478;-85
2022/07/31 05:32:33;;;;;;;4.97;3.30;;;;;;;;;;755189;183;670253;-86
2022/07/31 05:34:59;;;;;;;3.67;3.23;;;;;;;;;;754602;183;625660;-84
2022/07/31 05:37:25;;;;;;;5.57;2.93;;;;;;;;;;760706;183;630477;-83
2022/07/31 05:39:51;;;;;;;4.60;3.40;;;;;;;;;;754211;183;664215;-85
2022/07/31 05:42:17;;;;;;;4.63;2.80;;;;;;;;;;752625;183;638000;-85
2022/07/31 05:44:42;;;;;;;3.97;3.23;;;;;;;;;;756297;185;695666;-86
2022/07/31 05:47:08;;;;;;;3.57;3.07;;;;;;;;;;755907;183;632213;-85
2022/07/31 05:49:34;;;;;;;6.23;3.60;;;;;;;;;;753313;183;627042;-86
2022/07/31 05:52:01;;;;;;;6.43;3.00;;;;;;;;;;758429;183;632117;-85
2022/07/31 05:54:26;;;;;;;5.03;3.50;;;;;;;;;;749346;185;683588;-86
2022/07/31 05:56:52;;;;;;;3.33;2.93;;;;;;;;;;753799;183;648474;-85
2022/07/31 05:59:17;;;;;;;5.83;3.13;;;;;;;;;;755821;183;650527;-86
2022/07/31 06:01:43;;;;;;;4.30;3.50;;;;;;;;;;757059;182;712282;-85
2022/07/31 06:04:09;;;;;;;9.20;3.33;;;;;;;;;;757443;182;660530;-86
2022/07/31 06:06:35;;;;;;;6.70;4.72;;;;;;;;;;766413;183;618988;-86
2022/07/31 06:09:01;;;;;;;4.67;3.10;;;;;;;;;;756640;183;673876;-86
2022/07/31 06:11:27;;;;;;;4.60;3.73;;;;;;;;;;757278;183;647502;-85
2022/07/31 06:13:52;;;;;;;5.20;4.03;;;;;;;;;;752816;182;642608;-85
2022/07/31 06:16:18;;;;;;;7.27;3.83;;;;;;;;;;758037;183;674301;-85
2022/07/31 06:18:44;;;;;;;6.00;4.47;;;;;;;;;;756647;182;633739;-85
2022/07/31 06:21:11;;;;;;;4.50;3.53;;;;;;;;;;758621;183;631205;-85
2022/07/31 06:23:36;;;;;;;5.10;4.40;;;;;;;;;;754116;183;636730;-85
2022/07/31 06:26:02;;;;;;;4.00;3.47;;;;;;;;;;758752;183;612259;-85
2022/07/31 06:28:28;;;;;;;6.87;4.50;;;;;;;;;;756076;183;674897;-85
2022/07/31 06:30:53;;;;;;;5.90;4.00;;;;;;;;;;759319;183;651074;-85
2022/07/31 06:33:19;;;;;;;5.00;3.73;;;;;;;;;;760920;183;642565;-85
2022/07/31 06:35:45;;;;;;;4.97;4.00;;;;;;;;;;756690;183;630171;-87
2022/07/31 06:38:11;;;;;;;4.80;4.10;;;;;;;;;;753647;183;674824;-87
2022/07/31 06:40:37;;;;;;;5.63;4.17;;;;;;;;;;758312;185;637027;-85
2022/07/31 06:43:03;;;;;;;5.60;4.70;;;;;;;;;;754192;183;633774;-84
2022/07/31 06:45:29;;;;;;;9.87;5.07;;;;;;;;;;758239;183;651778;-86
2022/07/31 06:47:54;;;;;;;7.87;5.63;;;;;;;;;;757729;183;625410;-85
2022/07/31 06:50:20;;;;;;;7.20;5.40;;;;;;;;;;754915;180;640926;-85
2022/07/31 06:52:46;;;;;;;9.30;6.20;;;;;;;;;;760996;183;640408;-85
2022/07/31 06:55:12;;;;;;;6.97;5.67;;;;;;;;;;761761;183;625914;-85
2022/07/31 06:57:38;;;;;;;8.67;6.70;;;;;;;;;;758943;183;646338;-85
2022/07/31 07:00:04;;;;;;;9.00;5.27;;;;;;;;;;756942;183;634318;-86
2022/07/31 07:02:30;;;;;;;6.27;4.90;;;;;;;;;;756646;183;622995;-86
2022/07/31 07:04:56;;;;;;;6.27;5.20;;;;;;;;;;764130;183;668099;-85
2022/07/31 07:07:22;;;;;;;7.10;5.57;;;;;;;;;;754998;183;627292;-87
2022/07/31 07:09:48;;;;;;;6.27;5.00;;;;;;;;;;757623;183;641924;-86
2022/07/31 07:12:14;;;;;;;6.87;6.17;;;;;;;;;;754557;183;664251;-86
2022/07/31 07:14:39;;;;;;;6.50;5.03;;;;;;;;;;758517;183;623405;-86
2022/07/31 07:17:05;;;;;;;6.20;5.40;;;;;;;;;;757057;183;633939;-87
2022/07/31 07:19:32;;;;;;;10.10;5.80;;;;;;;;;;758903;182;641276;-86
2022/07/31 07:21:58;;;;;;;7.50;5.90;;;;;;;;;;760142;183;632280;-86
2022/07/31 07:24:24;;;;;;;6.60;5.40;;;;;;;;;;757210;182;678845;-86
2022/07/31 07:26:50;;;;;;;6.33;5.57;;;;;;;;;;754475;183;708818;-86
2022/07/31 07:29:17;;;;;;;6.70;6.07;;;;;;;;;;759244;183;662046;-86
2022/07/31 07:31:42;;;;;;;10.30;6.03;;;;;;;;;;755445;183;628797;-87
2022/07/31 07:34:08;;;;;;;7.33;5.70;;;;;;;;;;756018;183;624688;-86
2022/07/31 07:36:34;;;;;;;8.43;6.63;;;;;;;;;;756146;183;640397;-86
2022/07/31 07:38:59;;;;;;;8.43;7.47;;;;;;;;;;747042;185;677532;-86
2022/07/31 07:41:25;;;;;;;8.53;6.37;;;;;;;;;;756409;183;637386;-86
2022/07/31 07:43:51;;;;;;;11.50;7.77;;;;;;;;;;758131;183;641210;-86
2022/07/31 07:46:17;;;;;;;7.90;6.37;;;;;;;;;;760182;183;654459;-86
2022/07/31 07:48:43;;;;;;;9.47;7.10;;;;;;;;;;757030;183;920447;-86
2022/07/31 07:51:09;;;;;;;8.23;7.00;;;;;;;;;;756763;183;637758;-86
2022/07/31 07:53:35;;;;;;;8.80;7.23;;;;;;;;;;762141;182;617732;-85
2022/07/31 07:56:00;;;;;;;11.90;7.53;;;;;;;;;;757849;183;627613;-85
2022/07/31 07:58:26;;;;;;;9.87;7.70;;;;;;;;;;753139;182;639355;-85
2022/07/31 08:00:52;;;;;;;9.50;7.10;;;;;;;;;;756080;183;626645;-87
2022/07/31 08:03:18;;;;;;;8.07;7.27;;;;;;;;;;759406;180;629350;-86
2022/07/31 08:05:44;;;;;;;9.60;7.80;;;;;;;;;;756909;183;630441;-86
2022/07/31 08:08:10;;;;;;;9.27;7.33;;;;;;;;;;753592;183;631194;-85
2022/07/31 08:10:38;;;;;;;9.23;7.53;;;;;;;;;;765945;183;626654;-86
2022/07/31 08:13:01;;;;;;;9.07;7.80;;;;;;;;;;762316;183;623357;-85
2022/07/31 08:15:28;;;;;;;12.13;7.53;;;;;;;;;;754985;183;630335;-86
2022/07/31 08:17:53;;;;;;;9.10;8.20;;;;;;;;;;756066;184;734300;-85
2022/07/31 08:20:19;;;;;;;10.07;8.70;;;;;;;;;;761782;183;677945;-86
2022/07/31 08:22:45;;;;;;;13.43;9.60;;;;;;;;;;761267;183;655046;-85
2022/07/31 08:25:11;;;;;;;10.82;9.52;;;;;;;;;;757452;182;623265;-87
2022/07/31 08:27:37;;;;;;;10.97;8.97;;;;;;;;;;752688;186;635435;-85
2022/07/31 08:30:04;;;;;;;10.43;9.03;;;;;;;;;;757479;182;624644;-86
2022/07/31 08:32:29;;;;;;;10.67;8.50;;;;;;;;;;754835;183;667656;-85
2022/07/31 08:34:55;;;;;;;10.47;8.07;;;;;;;;;;758052;183;639269;-89
2022/07/31 08:37:21;;;;;;;12.73;8.90;;;;;;;;;;759653;180;693122;-87
2022/07/31 08:39:47;;;;;;;10.83;9.73;;;;;;;;;;753825;183;644898;-86
2022/07/31 08:42:12;;;;;;;11.60;9.17;;;;;;;;;;760616;183;643538;-86
2022/07/31 08:44:38;;;;;;;10.40;8.80;;;;;;;;;;754644;182;627109;-88
2022/07/31 08:47:05;;;;;;;9.70;8.20;;;;;;;;;;756709;183;620792;-88
2022/07/31 08:49:32;;;;;;;8.03;7.20;;;;;;;;;;757272;184;623586;-87
2022/07/31 08:51:58;;;;;;;11.07;8.43;;;;;;;;;;744755;186;629586;-85
2022/07/31 08:54:25;;;;;;;9.87;8.07;;;;;;;;;;762621;183;682547;-87
2022/07/31 08:56:51;;;;;;;10.70;8.90;;;;;;;;;;756710;183;681926;-86
2022/07/31 08:59:16;;;;;;;10.67;8.13;;;;;;;;;;759678;183;633630;-86
2022/07/31 09:01:42;;;;;;;9.03;8.13;;;;;;;;;;756828;183;671436;-87
2022/07/31 09:04:08;;;;;;;12.50;9.70;;;;;;;;;;757510;183;647657;-87
2022/07/31 09:06:33;;;;;;;14.23;9.50;;;;;;;;;;763840;184;686783;-86
2022/07/31 09:08:59;;;;;;;10.10;8.70;;;;;;;;;;753609;183;637956;-87
2022/07/31 09:11:25;;;;;;;10.50;9.40;;;;;;;;;;754709;182;628361;-87
2022/07/31 09:13:51;;;;;;;9.50;8.60;;;;;;;;;;755463;183;700487;-87
2022/07/31 09:16:17;;;;;;;18.93;9.80;;;;;;;;;;757643;180;614411;-87
2022/07/31 09:18:43;;;;;;;10.50;8.80;;;;;;;;;;755190;183;686634;-87
2022/07/31 09:21:08;;;;;;;11.43;9.07;;;;;;;;;;754699;183;628218;-86
2022/07/31 09:23:34;;;;;;;10.67;9.27;;;;;;;;;;762808;183;626431;-87
2022/07/31 09:26:00;;;;;;;9.63;8.47;;;;;;;;;;758228;182;671079;-86
2022/07/31 09:28:32;;;;;;;9.83;8.80;;;;;;;;;;755178;183;679280;-87
2022/07/31 09:30:57;;;;;;;9.90;8.67;;;;;;;;;;759424;183;644182;-86
2022/07/31 09:33:25;;;;;;;10.70;8.47;;;;;;;;;;750922;186;630664;-91
2022/07/31 09:35:51;;;;;;;11.70;9.77;;;;;;;;;;754694;182;628948;-86
2022/07/31 09:38:17;;;;;;;12.57;10.33;;;;;;;;;;760254;182;655197;-86
2022/07/31 09:40:42;;;;;;;10.77;9.67;;;;;;;;;;764914;183;628416;-85
2022/07/31 09:43:14;;;;;;;10.57;9.47;;;;;;;;;;760100;183;653112;-86
2022/07/31 09:45:40;;;;;;;11.03;9.70;;;;;;;;;;756332;182;689588;-86
2022/07/31 09:48:07;;;;;;;16.70;10.00;;;;;;;;;;758489;182;616693;-85
2022/07/31 09:50:32;;;;;;;14.10;10.27;;;;;;;;;;755724;184;626463;-87
2022/07/31 09:52:58;;;;;;;9.63;8.70;;;;;;;;;;752908;183;627400;-87
2022/07/31 09:55:24;;;;;;;10.50;8.23;;;;;;;;;;756725;182;624777;-86
2022/07/31 09:57:50;;;;;;;11.77;8.63;;;;;;;;;;759289;183;633475;-86
2022/07/31 10:00:16;;;;;;;9.43;8.43;;;;;;;;;;756979;183;639299;-89
2022/07/31 10:02:42;;;;;;;10.20;8.70;;;;;;;;;;758142;183;643361;-88
2022/07/31 10:05:08;;;;;;;10.27;8.53;;;;;;;;;;759786;183;642550;-86
2022/07/31 10:07:35;;;;;;;9.47;8.53;;;;;;;;;;755337;183;638521;-87
2022/07/31 10:10:00;;;;;;;11.00;8.20;;;;;;;;;;760121;183;637893;-91
2022/07/31 10:12:27;;;;;;;9.77;8.77;;;;;;;;;;756975;183;681395;-87
2022/07/31 10:14:51;;;;;;;13.07;8.73;;;;;;;;;;750278;184;656988;-87
2022/07/31 10:17:19;;;;;;;10.83;9.50;;;;;;;;;;757085;182;662845;-88
2022/07/31 10:19:46;;;;;;;10.60;9.50;;;;;;;;;;754476;183;645418;-88
2022/07/31 10:22:11;;;;;;;11.67;8.87;;;;;;;;;;756275;183;638442;-86
2022/07/31 10:24:37;;;;;;;10.87;9.80;;;;;;;;;;756682;182;672088;-87
2022/07/31 10:27:02;;;;;;;12.40;10.83;;;;;;;;;;755181;183;676881;-87
2022/07/31 10:29:28;;;;;;;11.13;10.03;;;;;;;;;;756046;183;650448;-86
2022/07/31 10:31:54;;;;;;;12.27;10.37;;;;;;;;;;757283;183;623981;-86
2022/07/31 10:34:20;;;;;;;12.97;10.80;;;;;;;;;;751367;183;663575;-86
2022/07/31 10:36:46;;;;;;;10.77;9.67;;;;;;;;;;755083;183;635002;-86
2022/07/31 10:39:15;;;;;;;14.27;11.07;;;;;;;;;;755327;183;632056;-86
2022/07/31 10:41:45;;;;;;;11.90;10.70;;;;;;;;;;755675;183;623306;-86
2022/07/31 10:44:21;;;;;;;12.10;10.80;;;;;;;;;;755041;183;681242;-87
2022/07/31 10:46:47;;;;;;;12.00;10.80;;;;;;;;;;755220;183;684840;-85
2022/07/31 10:49:13;;;;;;;12.90;11.60;;;;;;;;;;758976;183;628445;-85
2022/07/31 10:51:46;;;;;;;12.10;10.43;;;;;;;;;;758036;182;627918;-85
2022/07/31 10:54:13;;;;;;;11.10;10.00;;;;;;;;;;755905;183;654621;-85
2022/07/31 10:56:39;;;;;;;11.17;9.23;;;;;;;;;;763067;182;642822;-85
2022/07/31 10:59:05;;;;;;;10.33;9.33;;;;;;;;;;760002;182;629040;-86
2022/07/31 11:01:31;;;;;;;13.90;9.83;;;;;;;;;;756789;183;636537;-85
2022/07/31 11:03:59;;;;;;;9.93;8.93;;;;;;;;;;755372;183;643370;-86
2022/07/31 11:06:25;;;;;;;11.67;10.47;;;;;;;;;;757979;183;624959;-85
2022/07/31 11:08:51;;;;;;;11.53;9.93;;;;;;;;;;758075;183;676860;-85
2022/07/31 11:11:16;;;;;;;10.83;9.77;;;;;;;;;;755323;183;660251;-84
2022/07/31 11:13:47;;;;;;;11.93;10.83;;;;;;;;;;755533;182;635009;-85
2022/07/31 11:16:13;;;;;;;12.10;10.90;;;;;;;;;;760519;183;631859;-84
2022/07/31 11:18:38;;;;;;;11.80;10.60;;;;;;;;;;756491;183;641423;-84
2022/07/31 11:21:05;;;;;;;13.17;10.93;;;;;;;;;;758387;183;662929;-86
2022/07/31 11:23:30;;;;;;;12.40;11.23;;;;;;;;;;760288;183;615114;-85
2022/07/31 11:25:57;;;;;;;13.43;11.07;;;;;;;;;;750697;184;649294;-84
2022/07/31 11:28:23;;;;;;;14.90;11.33;;;;;;;;;;755817;183;668825;-84
2022/07/31 11:30:50;;;;;;;12.10;10.90;;;;;;;;;;756850;183;669585;-85
2022/07/31 11:33:16;;;;;;;13.60;12.13;;;;;;;;;;758535;183;629267;-84
2022/07/31 11:35:42;;;;;;;13.03;10.83;;;;;;;;;;746526;184;758464;-84
2022/07/31 11:38:08;;;;;;;12.87;11.10;;;;;;;;;;755554;183;636659;-88
2022/07/31 11:40:34;;;;;;;13.27;11.50;;;;;;;;;;758905;183;628319;-84
2022/07/31 11:43:00;;;;;;;12.10;11.00;;;;;;;;;;756596;183;632075;-84
2022/07/31 11:45:26;;;;;;;12.90;10.80;;;;;;;;;;756903;182;637789;-85
2022/07/31 11:47:51;;;;;;;16.80;10.13;;;;;;;;;;759117;183;622101;-84
2022/07/31 11:50:17;;;;;;;11.17;9.10;;;;;;;;;;756070;183;627426;-86
2022/07/31 11:52:43;;;;;;;11.73;9.57;;;;;;;;;;758049;183;624054;-84
2022/07/31 11:55:09;;;;;;;10.90;9.50;;;;;;;;;;758145;183;632459;-85
2022/07/31 11:57:35;;;;;;;12.30;9.67;;;;;;;;;;760186;183;625267;-85
2022/07/31 12:00:05;;;;;;;10.57;9.37;;;;;;;;;;756391;183;715938;-85
2022/07/31 12:02:31;;;;;;;10.80;9.30;;;;;;;;;;758577;182;649281;-83
2022/07/31 12:04:57;;;;;;;10.50;9.40;;;;;;;;;;759984;182;626299;-84
2022/07/31 12:07:22;;;;;;;11.23;8.30;;;;;;;;;;748450;184;706684;-85
2022/07/31 12:09:48;;;;;;;9.30;8.40;;;;;;;;;;755268;183;647651;-84
2022/07/31 12:12:14;;;;;;;7.90;7.10;;;;;;;;;;757270;183;613274;-84
2022/07/31 12:14:40;;;;;;;15.00;7.70;;;;;;;;;;755073;184;699988;-85
2022/07/31 12:17:06;;;;;;;9.80;8.13;;;;;;;;;;756931;183;638441;-85
2022/07/31 12:19:32;;;;;;;6.20;5.60;;;;;;;;;;755467;183;631239;-86
2022/07/31 12:21:58;;;;;;;10.13;7.37;;;;;;;;;;759458;183;620915;-86
2022/07/31 12:24:24;;;;;;;7.27;6.50;;;;;;;;;;756210;183;709469;-85
2022/07/31 12:26:49;;;;;;;8.67;5.90;;;;;;;;;;756078;183;628242;-86
2022/07/31 12:29:15;;;;;;;6.90;5.93;;;;;;;;;;756655;183;659697;-87
2022/07/31 12:31:45;;;;;;;7.80;6.20;;;;;;;;;;756298;183;637441;-86
2022/07/31 12:34:11;;;;;;;7.67;5.47;;;;;;;;;;755537;183;694084;-84
2022/07/31 12:36:37;;;;;;;9.17;6.73;;;;;;;;;;755837;183;618862;-85
2022/07/31 12:39:03;;;;;;;6.60;4.90;;;;;;;;;;758126;183;621865;-85
2022/07/31 12:41:29;;;;;;;8.60;5.17;;;;;;;;;;754958;183;696796;-86
2022/07/31 12:43:55;;;;;;;5.10;4.40;;;;;;;;;;753849;183;628655;-86
2022/07/31 12:46:21;;;;;;;7.23;4.27;;;;;;;;;;757172;183;647993;-87
2022/07/31 12:48:46;;;;;;;5.63;4.10;;;;;;;;;;756286;183;633649;-85
2022/07/31 12:51:12;;;;;;;5.40;3.90;;;;;;;;;;767020;179;637414;-61
2022/07/31 12:53:38;;;;;;;10.10;4.50;;;;;;;;;;768256;183;639765;-60
2022/07/31 12:56:04;;;;;;;4.90;3.73;;;;;;;;;;766173;181;631517;-58
2022/07/31 12:58:30;;;;;;;6.40;4.47;;;;;;;;;;766257;180;631151;-58
2022/07/31 13:00:56;;;;;;;6.13;4.33;;;;;;;;;;765208;182;620329;-60
2022/07/31 13:03:22;;;;;;;5.57;3.50;;;;;;;;;;769599;182;629470;-59
2022/07/31 13:05:48;;;;;;;5.80;4.27;;;;;;;;;;752341;183;633696;-59
2022/07/31 13:08:13;;;;;;;6.00;3.50;;;;;;;;;;738515;189;633356;-59
2022/07/31 13:10:39;;;;;;;5.73;4.03;;;;;;;;;;753959;185;624488;-58
2022/07/31 13:13:05;;;;;;;5.47;3.70;;;;;;;;;;766523;181;623203;-58
2022/07/31 13:15:31;;;;;;;5.40;3.90;;;;;;;;;;766741;182;626277;-61
2022/07/31 13:17:57;;;;;;;5.40;3.40;;;;;;;;;;770599;180;634730;-58
2022/07/31 13:20:23;;;;;;;6.87;3.43;;;;;;;;;;768332;182;626324;-59
2022/07/31 13:22:48;;;;;;;7.63;3.87;;;;;;;;;;768734;181;656972;-58
2022/07/31 13:25:15;;;;;;;6.43;3.97;;;;;;;;;;766507;182;620246;-58
2022/07/31 13:27:40;;;;;;;4.50;3.80;;;;;;;;;;771355;182;616188;-58
2022/07/31 13:30:06;;;;;;;4.80;3.83;;;;;;;;;;767982;179;615441;-59
2022/07/31 13:32:32;;;;;;;5.53;3.53;;;;;;;;;;767228;180;620771;-59
2022/07/31 13:34:58;;;;;;;8.37;3.87;;;;;;;;;;768475;183;668485;-59
2022/07/31 13:37:24;;;;;;;6.43;4.50;;;;;;;;;;765709;179;619023;-58
2022/07/31 13:39:50;;;;;;;4.50;3.70;;;;;;;;;;766737;180;618550;-57
2022/07/31 13:42:16;;;;;;;4.90;3.93;;;;;;;;;;770657;183;640506;-59
2022/07/31 13:44:41;;;;;;;9.53;5.00;;;;;;;;;;767628;180;646914;-59
2022/07/31 13:47:07;;;;;;;4.70;3.30;;;;;;;;;;768542;180;629858;-58
2022/07/31 13:49:33;;;;;;;3.87;3.47;;;;;;;;;;766298;183;634220;-58
2022/07/31 13:51:59;;;;;;;5.93;4.43;;;;;;;;;;753936;184;625763;-58
2022/07/31 13:54:25;;;;;;;4.60;3.30;;;;;;;;;;765594;183;634966;-57
2022/07/31 13:56:51;;;;;;;7.27;3.77;;;;;;;;;;767789;180;628912;-59
2022/07/31 13:59:17;;;;;;;4.60;3.57;;;;;;;;;;769360;182;618281;-59
2022/07/31 14:01:43;;;;;;;5.83;3.17;;;;;;;;;;766519;183;628531;-58
2022/07/31 14:04:08;;;;;;;6.83;3.57;;;;;;;;;;767150;183;617062;-57
2022/07/31 14:06:34;;;;;;;6.00;4.40;;;;;;;;;;770229;183;625535;-58
2022/07/31 14:09:00;;;;;;;4.90;3.40;;;;;;;;;;768569;182;631073;-58
2022/07/31 14:11:26;;;;;;;6.77;3.83;;;;;;;;;;766813;183;634430;-59
2022/07/31 14:13:52;;;;;;;4.40;3.43;;;;;;;;;;766926;179;623764;-58
2022/07/31 14:16:18;;;;;;;5.33;4.20;;;;;;;;;;761302;185;635597;-58
2022/07/31 14:18:43;;;;;;;5.87;3.73;;;;;;;;;;768374;181;631914;-58
2022/07/31 14:21:09;;;;;;;3.73;2.87;;;;;;;;;;767719;179;619719;-59
2022/07/31 14:23:36;;;;;;;7.17;3.93;;;;;;;;;;772057;182;619617;-58